createdAt,value
2018-09-10T00:01:32.204Z,16.30
2018-09-10T00:04:01.401Z,16.30
2018-09-10T00:06:30.571Z,16.30
2018-09-10T00:08:59.787Z,16.30
2018-09-10T00:11:28.967Z,16.30
2018-09-10T00:13:58.159Z,16.40
2018-09-10T00:16:27.632Z,16.40
2018-09-10T00:18:56.819Z,16.30
2018-09-10T00:21:26.011Z,16.20
2018-09-10T00:23:55.704Z,16.10
2018-09-10T00:26:24.891Z,16.00
2018-09-10T00:28:54.700Z,16.00
2018-09-10T00:31:24.007Z,15.80
2018-09-10T00:33:53.187Z,15.70
2018-09-10T00:36:22.387Z,15.70
2018-09-10T00:38:51.943Z,15.80
2018-09-10T00:41:21.171Z,15.70
2018-09-10T00:43:50.443Z,15.80
2018-09-10T00:46:19.652Z,15.70
2018-09-10T00:48:48.834Z,15.70
2018-09-10T00:51:18.021Z,15.60
2018-09-10T00:53:47.315Z,15.60
2018-09-10T00:56:16.491Z,15.60
2018-09-10T00:58:45.680Z,15.60
2018-09-10T01:01:14.952Z,15.60
2018-09-10T01:03:44.131Z,15.60
2018-09-10T01:06:13.308Z,15.60
2018-09-10T01:08:42.523Z,15.70
2018-09-10T01:11:11.719Z,15.60
2018-09-10T01:13:40.997Z,15.50
2018-09-10T01:16:10.211Z,15.50
2018-09-10T01:18:39.407Z,15.50
2018-09-10T01:21:08.584Z,15.40
2018-09-10T01:23:37.850Z,15.40
2018-09-10T01:26:07.364Z,15.30
2018-09-10T01:28:36.603Z,15.20
2018-09-10T01:31:05.900Z,15.20
2018-09-10T01:35:41.852Z,15.20
2018-09-10T01:38:11.070Z,15.20
2018-09-10T01:40:40.248Z,15.00
2018-09-10T01:43:10.650Z,15.00
2018-09-10T01:45:39.908Z,14.90
2018-09-10T01:48:09.143Z,14.90
2018-09-10T01:50:38.375Z,14.80
2018-09-10T01:53:07.593Z,14.70
2018-09-10T01:55:36.763Z,14.70
2018-09-10T01:58:06.232Z,14.70
2018-09-10T02:00:35.444Z,14.70
2018-09-10T02:03:04.671Z,14.70
2018-09-10T02:05:33.876Z,14.60
2018-09-10T02:08:03.319Z,14.60
2018-09-10T02:10:32.535Z,14.60
2018-09-10T02:13:01.736Z,14.50
2018-09-10T02:15:31.034Z,14.50
2018-09-10T02:18:00.216Z,14.50
2018-09-10T02:20:29.471Z,14.50
2018-09-10T02:22:58.614Z,14.50
2018-09-10T02:25:28.102Z,14.50
2018-09-10T02:27:57.776Z,14.40
2018-09-10T02:30:28.253Z,14.50
2018-09-10T02:32:57.450Z,14.50
2018-09-10T02:35:26.639Z,14.50
2018-09-10T02:37:55.849Z,14.50
2018-09-10T02:40:25.061Z,14.50
2018-09-10T02:42:54.270Z,14.50
2018-09-10T02:45:23.479Z,14.60
2018-09-10T02:47:52.720Z,14.70
2018-09-10T02:50:22.048Z,14.70
2018-09-10T02:52:51.656Z,14.60
2018-09-10T02:55:20.873Z,14.60
2018-09-10T02:57:50.071Z,14.60
2018-09-10T03:00:19.391Z,14.40
2018-09-10T03:02:48.579Z,14.40
2018-09-10T03:05:17.979Z,14.30
2018-09-10T03:07:47.241Z,14.30
2018-09-10T03:10:16.628Z,14.30
2018-09-10T03:12:45.807Z,14.30
2018-09-10T03:15:15.668Z,14.20
2018-09-10T03:17:44.866Z,14.10
2018-09-10T03:20:14.063Z,14.00
2018-09-10T03:22:43.278Z,13.90
2018-09-10T03:25:12.460Z,13.90
2018-09-10T03:27:41.695Z,13.90
2018-09-10T03:30:11.268Z,13.90
2018-09-10T03:32:40.947Z,14.00
2018-09-10T03:35:10.144Z,14.00
2018-09-10T03:37:39.684Z,13.90
2018-09-10T03:40:08.896Z,13.80
2018-09-10T03:42:42.024Z,13.80
2018-09-10T03:45:11.208Z,13.80
2018-09-10T03:47:40.391Z,13.90
2018-09-10T03:50:09.628Z,13.90
2018-09-10T03:52:38.798Z,13.80
2018-09-10T03:55:08.111Z,13.60
2018-09-10T03:57:37.463Z,13.60
2018-09-10T04:00:06.739Z,13.70
2018-09-10T04:02:35.925Z,13.60
2018-09-10T04:05:05.233Z,13.50
2018-09-10T04:07:34.699Z,13.50
2018-09-10T04:10:03.964Z,13.50
2018-09-10T04:12:33.164Z,13.60
2018-09-10T04:15:02.416Z,13.50
2018-09-10T04:17:31.606Z,13.40
2018-09-10T04:20:07.556Z,13.30
2018-09-10T04:22:37.012Z,13.20
2018-09-10T04:25:06.615Z,13.20
2018-09-10T04:27:36.955Z,13.20
2018-09-10T04:30:12.347Z,13.20
2018-09-10T04:32:41.909Z,13.20
2018-09-10T04:35:11.916Z,13.20
2018-09-10T04:37:41.312Z,13.20
2018-09-10T04:40:10.678Z,13.20
2018-09-10T04:42:39.854Z,13.20
2018-09-10T04:45:09.360Z,13.10
2018-09-10T04:47:38.542Z,13.20
2018-09-10T04:50:07.772Z,13.30
2018-09-10T04:52:36.949Z,13.30
2018-09-10T04:55:06.167Z,13.20
2018-09-10T04:57:35.344Z,13.20
2018-09-10T05:00:05.116Z,13.10
2018-09-10T05:02:34.651Z,13.10
2018-09-10T05:05:06.208Z,13.00
2018-09-10T05:07:35.420Z,13.10
2018-09-10T05:10:05.181Z,13.10
2018-09-10T05:12:34.299Z,13.10
2018-09-10T05:15:03.710Z,13.10
2018-09-10T05:17:32.895Z,13.10
2018-09-10T05:20:02.078Z,13.20
2018-09-10T05:22:31.384Z,13.20
2018-09-10T05:25:00.573Z,13.20
2018-09-10T05:27:29.847Z,13.20
2018-09-10T05:29:59.052Z,13.30
2018-09-10T05:32:28.239Z,13.30
2018-09-10T05:34:57.672Z,13.30
2018-09-10T05:37:26.895Z,13.30
2018-09-10T05:39:56.119Z,13.30
2018-09-10T05:42:25.335Z,13.40
2018-09-10T05:44:54.736Z,13.40
2018-09-10T05:47:23.930Z,13.40
2018-09-10T05:49:53.146Z,13.40
2018-09-10T05:52:24.275Z,13.40
2018-09-10T05:54:53.556Z,13.50
2018-09-10T05:57:22.736Z,13.50
2018-09-10T05:59:51.931Z,13.60
2018-09-10T06:02:21.121Z,13.60
2018-09-10T06:04:50.295Z,13.60
2018-09-10T06:07:19.688Z,13.70
2018-09-10T06:09:48.988Z,13.70
2018-09-10T06:12:18.167Z,13.80
2018-09-10T06:14:47.383Z,13.90
2018-09-10T06:17:16.564Z,13.90
2018-09-10T06:19:45.748Z,14.00
2018-09-10T06:22:14.923Z,14.00
2018-09-10T06:24:44.133Z,14.10
2018-09-10T06:27:13.308Z,14.10
2018-09-10T06:29:42.584Z,14.10
2018-09-10T06:32:11.756Z,14.20
2018-09-10T06:34:40.953Z,14.20
2018-09-10T06:37:10.430Z,14.20
2018-09-10T06:39:39.603Z,14.30
2018-09-10T06:44:43.524Z,14.50
2018-09-10T06:47:12.717Z,14.60
2018-09-10T06:49:41.931Z,14.70
2018-09-10T06:52:11.148Z,14.70
2018-09-10T06:54:40.616Z,14.70
2018-09-10T06:57:09.816Z,14.70
2018-09-10T06:59:39.023Z,14.90
2018-09-10T07:02:08.223Z,14.90
2018-09-10T07:04:37.403Z,14.90
2018-09-10T07:07:06.867Z,14.90
2018-09-10T07:09:36.045Z,15.00
2018-09-10T07:12:05.241Z,14.90
2018-09-10T07:14:34.435Z,14.90
2018-09-10T07:17:03.628Z,15.00
2018-09-10T07:19:32.856Z,15.00
2018-09-10T07:22:02.068Z,15.10
2018-09-10T07:24:31.388Z,15.10
2018-09-10T07:27:00.569Z,15.10
2018-09-10T07:29:29.911Z,15.20
2018-09-10T07:31:59.650Z,15.20
2018-09-10T07:34:28.983Z,15.30
2018-09-10T07:36:58.435Z,15.40
2018-09-10T07:39:28.043Z,15.50
2018-09-10T07:41:57.218Z,15.60
2018-09-10T07:44:26.431Z,15.80
2018-09-10T07:46:55.679Z,15.90
2018-09-10T07:49:26.698Z,15.90
2018-09-10T07:51:56.450Z,16.00
2018-09-10T07:54:25.804Z,16.00
2018-09-10T07:56:54.932Z,16.20
2018-09-10T07:59:24.147Z,16.30
2018-09-10T08:01:53.326Z,16.40
2018-09-10T08:04:22.576Z,16.40
2018-09-10T08:06:52.727Z,16.50
2018-09-10T08:09:22.470Z,16.60
2018-09-10T08:11:51.915Z,16.70
2018-09-10T08:14:21.211Z,16.80
2018-09-10T08:16:50.399Z,16.90
2018-09-10T08:19:19.624Z,17.00
2018-09-10T08:21:48.855Z,17.10
2018-09-10T08:24:18.146Z,17.20
2018-09-10T08:26:48.984Z,17.30
2018-09-10T08:29:18.352Z,17.50
2018-09-10T08:31:47.636Z,17.60
2018-09-10T08:34:16.832Z,17.70
2018-09-10T08:36:47.837Z,17.90
2018-09-10T08:39:17.052Z,18.10
2018-09-10T08:41:46.811Z,18.20
2018-09-10T08:44:16.412Z,18.30
2018-09-10T08:46:45.784Z,18.40
2018-09-10T08:49:14.991Z,18.40
2018-09-10T08:51:44.282Z,18.40
2018-09-10T08:54:13.651Z,18.50
2018-09-10T08:56:42.824Z,18.70
2018-09-10T08:59:12.457Z,18.80
2018-09-10T09:01:41.729Z,19.00
2018-09-10T09:04:10.908Z,19.10
2018-09-10T09:06:40.126Z,19.30
2018-09-10T09:09:09.688Z,19.40
2018-09-10T09:11:38.886Z,19.60
2018-09-10T09:14:08.100Z,19.60
2018-09-10T09:16:37.297Z,19.70
2018-09-10T09:19:06.515Z,19.70
2018-09-10T09:21:36.093Z,19.90
2018-09-10T09:24:05.312Z,20.00
2018-09-10T09:26:34.541Z,20.10
2018-09-10T09:29:03.812Z,20.30
2018-09-10T09:31:33.011Z,20.50
2018-09-10T09:34:03.360Z,20.60
2018-09-10T09:36:38.652Z,20.90
2018-09-10T09:39:13.192Z,21.10
2018-09-10T09:41:47.679Z,21.40
2018-09-10T09:44:22.641Z,21.60
2018-09-10T09:46:52.057Z,21.80
2018-09-10T09:49:21.542Z,22.00
2018-09-10T09:51:50.803Z,22.20
2018-09-10T09:54:20.457Z,22.50
2018-09-10T09:56:49.772Z,22.70
2018-09-10T09:59:18.971Z,22.90
2018-09-10T10:01:52.697Z,23.10
2018-09-10T10:04:21.932Z,23.30
2018-09-10T10:06:51.064Z,23.50
2018-09-10T10:09:20.295Z,23.60
2018-09-10T10:11:49.613Z,23.80
2018-09-10T10:14:18.804Z,24.00
2018-09-10T10:16:49.113Z,24.20
2018-09-10T10:19:18.288Z,24.30
2018-09-10T10:21:47.544Z,24.50
2018-09-10T10:24:16.743Z,24.50
2018-09-10T10:26:45.932Z,24.60
2018-09-10T10:29:15.120Z,24.70
2018-09-10T10:31:44.744Z,25.10
2018-09-10T10:34:17.773Z,25.80
2018-09-10T10:36:47.607Z,26.20
2018-09-10T10:39:16.816Z,26.90
2018-09-10T10:41:45.963Z,27.30
2018-09-10T10:44:15.163Z,27.60
2018-09-10T10:46:44.809Z,27.60
2018-09-10T10:49:14.043Z,27.90
2018-09-10T10:51:43.523Z,28.40
2018-09-10T10:54:12.929Z,28.80
2018-09-10T10:56:42.099Z,28.80
2018-09-10T10:59:11.700Z,28.50
2018-09-10T11:01:41.172Z,28.50
2018-09-10T11:04:10.415Z,28.80
2018-09-10T11:06:39.620Z,29.60
2018-09-10T11:09:08.955Z,29.80
2018-09-10T11:11:38.283Z,29.90
2018-09-10T11:14:07.875Z,30.60
2018-09-10T11:16:38.095Z,30.60
2018-09-10T11:19:12.497Z,29.90
2018-09-10T11:21:42.100Z,29.30
2018-09-10T11:24:11.267Z,28.90
2018-09-10T11:26:40.547Z,28.80
2018-09-10T11:29:09.759Z,29.00
2018-09-10T11:31:42.895Z,29.30
2018-09-10T11:34:12.895Z,29.10
2018-09-10T11:36:42.068Z,29.40
2018-09-10T11:39:11.366Z,30.20
2018-09-10T11:41:40.887Z,31.00
2018-09-10T11:44:10.070Z,31.60
2018-09-10T11:46:39.413Z,31.90
2018-09-10T11:49:09.083Z,31.80
2018-09-10T11:51:38.382Z,31.70
2018-09-10T11:54:07.683Z,31.60
2018-09-10T11:56:36.867Z,31.40
2018-09-10T11:59:06.157Z,31.40
2018-09-10T12:01:36.783Z,31.40
2018-09-10T12:04:06.168Z,31.90
2018-09-10T12:06:35.355Z,33.00
2018-09-10T12:09:05.963Z,33.70
2018-09-10T12:11:35.315Z,33.60
2018-09-10T12:14:04.572Z,34.00
2018-09-10T12:16:33.975Z,34.90
2018-09-10T12:19:03.223Z,35.30
2018-09-10T12:21:32.554Z,34.70
2018-09-10T12:24:01.861Z,33.90
2018-09-10T12:26:31.183Z,33.00
2018-09-10T12:29:00.441Z,33.40
2018-09-10T12:31:30.929Z,34.80
2018-09-10T12:34:00.200Z,35.70
2018-09-10T12:36:30.796Z,35.70
2018-09-10T12:39:00.217Z,35.90
2018-09-10T12:41:29.633Z,36.10
2018-09-10T12:43:58.936Z,35.90
2018-09-10T12:46:29.137Z,35.50
2018-09-10T12:49:03.419Z,35.50
2018-09-10T12:51:32.673Z,35.40
2018-09-10T12:54:02.461Z,35.60
2018-09-10T12:56:32.293Z,35.30
2018-09-10T12:59:02.782Z,34.80
2018-09-10T13:01:31.963Z,35.20
2018-09-10T13:04:01.183Z,34.90
2018-09-10T13:06:31.375Z,34.40
2018-09-10T13:09:00.567Z,34.80
2018-09-10T13:11:30.276Z,35.90
2018-09-10T13:13:59.483Z,36.40
2018-09-10T13:16:28.707Z,37.00
2018-09-10T13:18:58.565Z,37.70
2018-09-10T13:21:27.964Z,37.70
2018-09-10T13:23:57.304Z,37.50
2018-09-10T13:26:26.485Z,37.00
2018-09-10T13:28:56.244Z,36.60
2018-09-10T13:31:25.436Z,36.30
2018-09-10T13:33:54.619Z,35.60
2018-09-10T13:36:23.869Z,34.70
2018-09-10T13:38:53.055Z,34.20
2018-09-10T13:41:22.252Z,34.10
2018-09-10T13:43:51.892Z,34.30
2018-09-10T13:46:21.091Z,34.60
2018-09-10T13:48:50.341Z,34.90
2018-09-10T13:51:19.792Z,34.60
2018-09-10T13:53:49.199Z,34.10
2018-09-10T13:56:18.376Z,33.50
2018-09-10T13:58:47.738Z,33.20
2018-09-10T14:01:17.208Z,32.80
2018-09-10T14:03:46.403Z,32.50
2018-09-10T14:06:15.678Z,32.10
2018-09-10T14:08:44.847Z,31.80
2018-09-10T14:11:14.037Z,31.80
2018-09-10T14:13:43.309Z,31.90
2018-09-10T14:16:12.511Z,31.90
2018-09-10T14:18:41.708Z,32.00
2018-09-10T14:21:10.941Z,32.10
2018-09-10T14:23:40.116Z,32.10
2018-09-10T14:26:09.423Z,32.10
2018-09-10T14:28:38.909Z,32.10
2018-09-10T14:31:08.109Z,32.00
2018-09-10T14:33:38.365Z,31.70
2018-09-10T14:36:08.195Z,31.50
2018-09-10T14:38:37.814Z,31.20
2018-09-10T14:41:07.151Z,31.00
2018-09-10T14:43:36.359Z,30.70
2018-09-10T14:46:05.603Z,30.40
2018-09-10T14:48:35.956Z,30.20
2018-09-10T14:51:05.517Z,30.00
2018-09-10T14:53:34.691Z,29.80
2018-09-10T14:56:03.900Z,29.60
2018-09-10T14:58:33.576Z,29.50
2018-09-10T15:01:02.747Z,29.50
2018-09-10T15:03:31.956Z,29.50
2018-09-10T15:06:01.191Z,29.30
2018-09-10T15:08:30.416Z,29.20
2018-09-10T15:10:59.683Z,29.20
2018-09-10T15:13:28.887Z,29.20
2018-09-10T15:15:58.092Z,29.10
2018-09-10T15:18:27.378Z,29.10
2018-09-10T15:20:56.587Z,29.10
2018-09-10T15:23:25.812Z,29.00
2018-09-10T15:25:55.056Z,28.90
2018-09-10T15:28:24.393Z,28.90
2018-09-10T15:30:53.761Z,28.80
2018-09-10T15:33:22.935Z,28.70
2018-09-10T15:35:52.135Z,28.60
2018-09-10T15:38:21.331Z,28.60
2018-09-10T15:40:50.519Z,28.50
2018-09-10T15:43:20.171Z,28.40
2018-09-10T15:45:49.380Z,28.40
2018-09-10T15:48:18.872Z,28.30
2018-09-10T15:50:48.176Z,28.20
2018-09-10T15:53:17.684Z,28.20
2018-09-10T15:55:46.851Z,28.10
2018-09-10T15:58:16.064Z,28.10
2018-09-10T16:00:45.271Z,28.10
2018-09-10T16:03:14.466Z,28.00
2018-09-10T16:05:43.808Z,27.90
2018-09-10T16:08:12.992Z,27.90
2018-09-10T16:10:43.215Z,27.90
2018-09-10T16:13:12.443Z,27.90
2018-09-10T16:15:41.643Z,27.90
2018-09-10T16:18:10.840Z,27.80
2018-09-10T16:20:40.043Z,27.70
2018-09-10T16:23:09.391Z,27.70
2018-09-10T16:25:38.628Z,27.70
2018-09-10T16:28:08.272Z,27.70
2018-09-10T16:30:37.472Z,27.60
2018-09-10T16:33:06.991Z,27.60
2018-09-10T16:35:36.260Z,27.50
2018-09-10T16:38:05.548Z,27.40
2018-09-10T16:40:34.775Z,27.40
2018-09-10T16:43:04.227Z,27.30
2018-09-10T16:45:33.431Z,27.30
2018-09-10T16:48:02.648Z,27.20
2018-09-10T16:50:32.777Z,27.20
2018-09-10T16:53:02.155Z,27.10
2018-09-10T16:55:31.619Z,27.00
2018-09-10T16:58:00.834Z,26.90
2018-09-10T17:00:30.017Z,26.90
2018-09-10T17:02:59.214Z,26.80
2018-09-10T17:05:28.477Z,26.70
2018-09-10T17:07:57.792Z,26.70
2018-09-10T17:10:27.051Z,26.60
2018-09-10T17:12:56.347Z,26.60
2018-09-10T17:15:25.527Z,26.60
2018-09-10T17:17:54.939Z,26.50
2018-09-10T17:20:24.226Z,26.40
2018-09-10T17:22:54.561Z,26.40
2018-09-10T17:25:23.813Z,26.40
2018-09-10T17:27:53.128Z,26.40
2018-09-10T17:30:22.363Z,26.30
2018-09-10T17:32:51.496Z,26.30
2018-09-10T17:35:20.797Z,26.20
2018-09-10T17:37:50.091Z,26.20
2018-09-10T17:40:19.323Z,26.20
2018-09-10T17:42:49.952Z,26.10
2018-09-10T17:45:19.417Z,26.00
2018-09-10T17:47:48.765Z,25.90
2018-09-10T17:50:17.958Z,25.80
2018-09-10T17:52:47.312Z,25.70
2018-09-10T17:55:16.951Z,25.60
2018-09-10T17:57:46.615Z,25.50
2018-09-10T18:00:15.816Z,25.40
2018-09-10T18:02:45.119Z,25.40
2018-09-10T18:05:14.588Z,25.30
2018-09-10T18:07:44.032Z,25.30
2018-09-10T18:10:13.252Z,25.30
2018-09-10T18:12:42.675Z,25.20
2018-09-10T18:15:11.911Z,25.20
2018-09-10T18:17:41.319Z,25.10
2018-09-10T18:20:10.836Z,25.00
2018-09-10T18:22:40.563Z,25.00
2018-09-10T18:25:09.796Z,25.00
2018-09-10T18:27:39.032Z,24.90
2018-09-10T18:30:08.271Z,24.80
2018-09-10T18:32:37.471Z,24.80
2018-09-10T18:35:06.711Z,24.70
2018-09-10T18:37:36.035Z,24.70
2018-09-10T18:40:05.270Z,24.70
2018-09-10T18:42:36.821Z,24.70
2018-09-10T18:45:06.259Z,24.60
2018-09-10T18:47:37.796Z,24.60
2018-09-10T18:50:07.236Z,24.50
2018-09-10T18:52:36.668Z,24.50
2018-09-10T18:55:06.336Z,24.50
2018-09-10T18:57:35.970Z,24.40
2018-09-10T19:00:05.538Z,24.40
2018-09-10T19:02:34.755Z,24.40
2018-09-10T19:05:04.355Z,24.30
2018-09-10T19:07:33.556Z,24.40
2018-09-10T19:10:02.991Z,24.40
2018-09-10T19:12:32.195Z,24.40
2018-09-10T19:15:04.127Z,24.40
2018-09-10T19:17:33.336Z,24.30
2018-09-10T19:20:02.531Z,24.20
2018-09-10T19:22:31.718Z,24.20
2018-09-10T19:25:01.148Z,24.00
2018-09-10T19:27:30.372Z,24.00
2018-09-10T19:29:59.551Z,23.90
2018-09-10T19:32:28.779Z,23.80
2018-09-10T19:34:57.956Z,23.80
2018-09-10T19:37:27.146Z,23.70
2018-09-10T19:39:56.389Z,23.60
2018-09-10T19:42:25.579Z,23.60
2018-09-10T19:44:54.774Z,23.50
2018-09-10T19:47:24.320Z,23.50
2018-09-10T19:49:53.495Z,23.50
2018-09-10T19:52:22.679Z,23.40
2018-09-10T19:54:52.721Z,23.30
2018-09-10T19:57:22.163Z,23.20
2018-09-10T19:59:51.694Z,23.10
2018-09-10T20:02:20.920Z,23.10
2018-09-10T20:04:50.096Z,23.00
2018-09-10T20:07:19.356Z,23.00
2018-09-10T20:09:48.855Z,22.90
2018-09-10T20:12:17.964Z,22.90
2018-09-10T20:14:47.144Z,22.80
2018-09-10T20:17:16.346Z,22.80
2018-09-10T20:19:45.536Z,22.70
2018-09-10T20:22:16.596Z,22.70
2018-09-10T20:24:45.897Z,22.60
2018-09-10T20:27:15.608Z,22.60
2018-09-10T20:29:44.792Z,22.60
2018-09-10T20:32:14.087Z,22.50
2018-09-10T20:34:43.340Z,22.50
2018-09-10T20:37:12.531Z,22.40
2018-09-10T20:39:41.953Z,22.40
2018-09-10T20:42:11.111Z,22.30
2018-09-10T20:44:40.315Z,22.30
2018-09-10T20:47:09.524Z,22.20
2018-09-10T20:49:38.768Z,22.20
2018-09-10T20:52:08.002Z,22.20
2018-09-10T20:54:37.363Z,22.10
2018-09-10T20:57:06.607Z,22.00
2018-09-10T20:59:35.793Z,21.90
2018-09-10T21:02:05.776Z,21.90
2018-09-10T21:04:34.980Z,21.80
2018-09-10T21:07:04.328Z,21.70
2018-09-10T21:09:33.527Z,21.70
2018-09-10T21:12:02.721Z,21.60
2018-09-10T21:14:32.152Z,21.50
2018-09-10T21:17:01.724Z,21.50
2018-09-10T21:19:30.921Z,21.50
2018-09-10T21:22:00.158Z,21.40
2018-09-10T21:24:29.381Z,21.40
2018-09-10T21:26:58.583Z,21.30
2018-09-10T21:29:27.827Z,21.30
2018-09-10T21:31:57.113Z,21.20
2018-09-10T21:34:26.279Z,21.20
2018-09-10T21:36:55.475Z,21.10
2018-09-10T21:39:24.827Z,21.10
2018-09-10T21:41:54.014Z,21.00
2018-09-10T21:44:23.194Z,21.00
2018-09-10T21:46:52.444Z,21.00
2018-09-10T21:49:21.619Z,20.90
2018-09-10T21:51:50.912Z,20.90
2018-09-10T21:54:20.332Z,20.80
2018-09-10T21:56:49.679Z,20.80
2018-09-10T21:59:18.916Z,20.70
2018-09-10T22:01:48.248Z,20.70
2018-09-10T22:04:17.767Z,20.60
2018-09-10T22:06:47.131Z,20.60
2018-09-10T22:09:16.372Z,20.60
2018-09-10T22:11:50.871Z,20.60
2018-09-10T22:14:20.084Z,20.60
2018-09-10T22:16:49.295Z,20.60
2018-09-10T22:19:18.515Z,20.50
2018-09-10T22:21:47.963Z,20.50
2018-09-10T22:24:17.180Z,20.50
2018-09-10T22:26:46.363Z,20.40
2018-09-10T22:29:15.759Z,20.40
2018-09-10T22:31:44.955Z,20.40
2018-09-10T22:34:14.144Z,20.40
2018-09-10T22:36:43.355Z,20.40
2018-09-10T22:39:13.943Z,20.30
2018-09-10T22:41:43.547Z,20.30
2018-09-10T22:44:12.922Z,20.20
2018-09-10T22:46:42.079Z,20.10
2018-09-10T22:49:11.244Z,20.00
2018-09-10T22:51:40.445Z,20.00
2018-09-10T22:54:09.940Z,19.90
2018-09-10T22:56:39.148Z,19.90
2018-09-10T22:59:08.371Z,19.80
2018-09-10T23:01:37.562Z,19.80
2018-09-10T23:04:06.803Z,19.80
2018-09-10T23:06:36.575Z,19.70
2018-09-10T23:09:07.232Z,19.70
2018-09-10T23:11:36.436Z,19.70
2018-09-10T23:14:05.711Z,19.70
2018-09-10T23:16:35.212Z,19.60
2018-09-10T23:19:04.437Z,19.60
2018-09-10T23:21:33.661Z,19.60
2018-09-10T23:24:02.855Z,19.50
2018-09-10T23:26:32.043Z,19.50
2018-09-10T23:29:04.075Z,19.40
2018-09-10T23:31:33.263Z,19.40
2018-09-10T23:34:02.459Z,19.40
2018-09-10T23:36:31.659Z,19.40
2018-09-10T23:39:00.877Z,19.30
2018-09-10T23:41:30.111Z,19.30
2018-09-10T23:43:59.340Z,19.30
2018-09-10T23:46:28.512Z,19.20
2018-09-10T23:48:57.692Z,19.20
2018-09-10T23:51:27.060Z,19.20
2018-09-10T23:53:56.255Z,19.10
2018-09-10T23:56:26.768Z,19.10
2018-09-10T23:58:55.971Z,19.10
